sensor_id;sensor_type;location;lat;lon;timestamp;P1;durP1;ratioP1;P2;durP2;ratioP2
8540;SDS011;4308;51.294;6.590;2022-10-31T00:00:54;21.83;;;11.00;;
8540;SDS011;4308;51.294;6.590;2022-10-31T00:03:22;19.37;;;11.10;;
8540;SDS011;4308;51.294;6.590;2022-10-31T00:05:49;24.87;;;12.07;;
8540;SDS011;4308;51.294;6.590;2022-10-31T00:08:17;19.77;;;11.13;;
8540;SDS011;4308;51.294;6.590;2022-10-31T00:10:45;18.93;;;11.00;;
8540;SDS011;4308;51.294;6.590;2022-10-31T00:13:13;19.60;;;11.60;;
8540;SDS011;4308;51.294;6.590;2022-10-31T00:15:41;20.87;;;11.33;;
8540;SDS011;4308;51.294;6.590;2022-10-31T00:18:09;20.03;;;12.67;;
8540;SDS011;4308;51.294;6.590;2022-10-31T00:20:37;20.20;;;11.97;;
8540;SDS011;4308;51.294;6.590;2022-10-31T00:23:06;22.40;;;10.37;;
8540;SDS011;4308;51.294;6.590;2022-10-31T00:25:35;19.00;;;11.60;;
8540;SDS011;4308;51.294;6.590;2022-10-31T00:28:03;21.40;;;12.60;;
8540;SDS011;4308;51.294;6.590;2022-10-31T00:30:31;18.23;;;11.30;;
8540;SDS011;4308;51.294;6.590;2022-10-31T00:32:59;19.03;;;10.37;;
8540;SDS011;4308;51.294;6.590;2022-10-31T00:35:27;21.20;;;11.63;;
8540;SDS011;4308;51.294;6.590;2022-10-31T00:37:54;21.53;;;11.27;;
8540;SDS011;4308;51.294;6.590;2022-10-31T00:40:22;18.90;;;11.03;;
8540;SDS011;4308;51.294;6.590;2022-10-31T00:42:49;22.83;;;12.20;;
8540;SDS011;4308;51.294;6.590;2022-10-31T00:45:17;18.90;;;11.10;;
8540;SDS011;4308;51.294;6.590;2022-10-31T00:47:44;24.97;;;12.27;;
8540;SDS011;4308;51.294;6.590;2022-10-31T00:50:12;23.13;;;11.67;;
8540;SDS011;4308;51.294;6.590;2022-10-31T00:52:42;21.57;;;11.57;;
8540;SDS011;4308;51.294;6.590;2022-10-31T00:55:10;18.87;;;11.00;;
8540;SDS011;4308;51.294;6.590;2022-10-31T00:57:37;18.40;;;11.83;;
8540;SDS011;4308;51.294;6.590;2022-10-31T01:00:05;20.83;;;11.77;;
8540;SDS011;4308;51.294;6.590;2022-10-31T01:02:33;17.23;;;10.83;;
8540;SDS011;4308;51.294;6.590;2022-10-31T01:05:01;19.23;;;11.67;;
8540;SDS011;4308;51.294;6.590;2022-10-31T01:07:28;20.20;;;11.83;;
8540;SDS011;4308;51.294;6.590;2022-10-31T01:09:56;24.60;;;11.80;;
8540;SDS011;4308;51.294;6.590;2022-10-31T01:12:23;24.10;;;12.43;;
8540;SDS011;4308;51.294;6.590;2022-10-31T01:14:51;17.27;;;12.17;;
8540;SDS011;4308;51.294;6.590;2022-10-31T01:17:18;19.53;;;12.50;;
8540;SDS011;4308;51.294;6.590;2022-10-31T01:19:46;21.77;;;12.37;;
8540;SDS011;4308;51.294;6.590;2022-10-31T01:22:13;20.77;;;12.90;;
8540;SDS011;4308;51.294;6.590;2022-10-31T01:24:41;17.30;;;11.50;;
8540;SDS011;4308;51.294;6.590;2022-10-31T01:27:09;23.23;;;12.50;;
8540;SDS011;4308;51.294;6.590;2022-10-31T01:29:36;28.03;;;12.63;;
8540;SDS011;4308;51.294;6.590;2022-10-31T01:32:04;19.40;;;11.53;;
8540;SDS011;4308;51.294;6.590;2022-10-31T01:34:32;21.63;;;13.40;;
8540;SDS011;4308;51.294;6.590;2022-10-31T01:37:00;26.87;;;13.17;;
8540;SDS011;4308;51.294;6.590;2022-10-31T01:39:27;18.97;;;12.23;;
8540;SDS011;4308;51.294;6.590;2022-10-31T01:41:55;22.77;;;12.97;;
8540;SDS011;4308;51.294;6.590;2022-10-31T01:49:27;20.73;;;12.30;;
8540;SDS011;4308;51.294;6.590;2022-10-31T01:52:00;22.33;;;12.87;;
8540;SDS011;4308;51.294;6.590;2022-10-31T01:54:30;25.27;;;13.67;;
8540;SDS011;4308;51.294;6.590;2022-10-31T01:56:59;27.63;;;12.73;;
8540;SDS011;4308;51.294;6.590;2022-10-31T01:59:29;23.47;;;13.03;;
8540;SDS011;4308;51.294;6.590;2022-10-31T02:01:58;17.70;;;12.20;;
8540;SDS011;4308;51.294;6.590;2022-10-31T02:04:26;21.17;;;13.20;;
8540;SDS011;4308;51.294;6.590;2022-10-31T02:09:28;23.03;;;13.07;;
8540;SDS011;4308;51.294;6.590;2022-10-31T02:11:57;19.07;;;13.40;;
8540;SDS011;4308;51.294;6.590;2022-10-31T02:14:26;22.63;;;13.17;;
8540;SDS011;4308;51.294;6.590;2022-10-31T02:16:55;22.40;;;13.60;;
8540;SDS011;4308;51.294;6.590;2022-10-31T02:22:21;18.60;;;11.97;;
8540;SDS011;4308;51.294;6.590;2022-10-31T02:35:10;24.53;;;13.17;;
8540;SDS011;4308;51.294;6.590;2022-10-31T02:40:51;20.17;;;13.20;;
8540;SDS011;4308;51.294;6.590;2022-10-31T02:43:21;20.57;;;12.03;;
8540;SDS011;4308;51.294;6.590;2022-10-31T02:46:07;22.67;;;12.73;;
8540;SDS011;4308;51.294;6.590;2022-10-31T02:48:38;24.43;;;14.13;;
8540;SDS011;4308;51.294;6.590;2022-10-31T02:51:07;24.83;;;13.33;;
8540;SDS011;4308;51.294;6.590;2022-10-31T02:53:36;22.87;;;12.83;;
8540;SDS011;4308;51.294;6.590;2022-10-31T02:58:35;21.77;;;12.57;;
8540;SDS011;4308;51.294;6.590;2022-10-31T03:03:48;21.83;;;13.60;;
8540;SDS011;4308;51.294;6.590;2022-10-31T03:08:59;25.47;;;13.60;;
8540;SDS011;4308;51.294;6.590;2022-10-31T03:11:29;22.33;;;12.90;;
8540;SDS011;4308;51.294;6.590;2022-10-31T03:14:00;27.47;;;13.37;;
8540;SDS011;4308;51.294;6.590;2022-10-31T03:21:30;23.00;;;12.50;;
8540;SDS011;4308;51.294;6.590;2022-10-31T03:24:01;20.27;;;12.90;;
8540;SDS011;4308;51.294;6.590;2022-10-31T03:26:29;30.67;;;14.53;;
8540;SDS011;4308;51.294;6.590;2022-10-31T03:28:59;23.50;;;13.10;;
8540;SDS011;4308;51.294;6.590;2022-10-31T03:31:30;25.87;;;12.80;;
8540;SDS011;4308;51.294;6.590;2022-10-31T03:33:59;21.60;;;13.13;;
8540;SDS011;4308;51.294;6.590;2022-10-31T03:36:29;21.87;;;13.13;;
8540;SDS011;4308;51.294;6.590;2022-10-31T03:38:57;19.67;;;13.00;;
8540;SDS011;4308;51.294;6.590;2022-10-31T03:41:27;26.40;;;14.17;;
8540;SDS011;4308;51.294;6.590;2022-10-31T03:44:00;21.90;;;13.43;;
8540;SDS011;4308;51.294;6.590;2022-10-31T03:46:29;23.90;;;13.90;;
8540;SDS011;4308;51.294;6.590;2022-10-31T03:48:57;22.43;;;13.33;;
8540;SDS011;4308;51.294;6.590;2022-10-31T03:51:26;19.93;;;12.20;;
8540;SDS011;4308;51.294;6.590;2022-10-31T03:59:04;26.27;;;12.37;;
8540;SDS011;4308;51.294;6.590;2022-10-31T04:01:34;23.67;;;12.70;;
8540;SDS011;4308;51.294;6.590;2022-10-31T04:04:03;20.70;;;12.37;;
8540;SDS011;4308;51.294;6.590;2022-10-31T04:06:31;22.33;;;13.27;;
8540;SDS011;4308;51.294;6.590;2022-10-31T04:09:02;23.50;;;12.43;;
8540;SDS011;4308;51.294;6.590;2022-10-31T04:11:38;24.10;;;12.50;;
8540;SDS011;4308;51.294;6.590;2022-10-31T04:14:07;22.63;;;11.77;;
8540;SDS011;4308;51.294;6.590;2022-10-31T04:16:36;23.37;;;12.60;;
8540;SDS011;4308;51.294;6.590;2022-10-31T04:19:04;26.33;;;12.70;;
8540;SDS011;4308;51.294;6.590;2022-10-31T04:21:31;22.60;;;13.30;;
8540;SDS011;4308;51.294;6.590;2022-10-31T04:23:59;24.53;;;13.00;;
8540;SDS011;4308;51.294;6.590;2022-10-31T04:26:26;23.00;;;12.03;;
8540;SDS011;4308;51.294;6.590;2022-10-31T04:28:54;21.73;;;12.43;;
8540;SDS011;4308;51.294;6.590;2022-10-31T04:31:21;23.47;;;12.73;;
8540;SDS011;4308;51.294;6.590;2022-10-31T04:33:49;20.93;;;13.07;;
8540;SDS011;4308;51.294;6.590;2022-10-31T04:36:16;20.10;;;12.70;;
8540;SDS011;4308;51.294;6.590;2022-10-31T04:38:44;19.17;;;12.50;;
8540;SDS011;4308;51.294;6.590;2022-10-31T04:41:11;26.37;;;13.33;;
8540;SDS011;4308;51.294;6.590;2022-10-31T04:43:39;23.90;;;12.00;;
8540;SDS011;4308;51.294;6.590;2022-10-31T04:46:06;16.73;;;11.53;;
8540;SDS011;4308;51.294;6.590;2022-10-31T04:48:34;24.67;;;12.47;;
8540;SDS011;4308;51.294;6.590;2022-10-31T04:51:01;23.33;;;13.40;;
8540;SDS011;4308;51.294;6.590;2022-10-31T04:53:29;21.33;;;11.60;;
8540;SDS011;4308;51.294;6.590;2022-10-31T04:55:59;25.03;;;13.83;;
8540;SDS011;4308;51.294;6.590;2022-10-31T04:58:27;27.27;;;14.03;;
8540;SDS011;4308;51.294;6.590;2022-10-31T05:00:55;22.93;;;12.83;;
8540;SDS011;4308;51.294;6.590;2022-10-31T05:03:23;20.83;;;11.77;;
8540;SDS011;4308;51.294;6.590;2022-10-31T05:05:50;21.23;;;11.93;;
8540;SDS011;4308;51.294;6.590;2022-10-31T05:08:18;22.63;;;11.77;;
8540;SDS011;4308;51.294;6.590;2022-10-31T05:10:45;24.77;;;12.50;;
8540;SDS011;4308;51.294;6.590;2022-10-31T05:13:13;25.43;;;11.33;;
8540;SDS011;4308;51.294;6.590;2022-10-31T05:15:40;19.50;;;11.23;;
8540;SDS011;4308;51.294;6.590;2022-10-31T05:18:08;21.60;;;13.47;;
8540;SDS011;4308;51.294;6.590;2022-10-31T05:20:35;25.27;;;13.40;;
8540;SDS011;4308;51.294;6.590;2022-10-31T05:23:03;18.53;;;12.17;;
8540;SDS011;4308;51.294;6.590;2022-10-31T05:25:31;21.67;;;11.77;;
8540;SDS011;4308;51.294;6.590;2022-10-31T05:27:58;21.67;;;12.67;;
8540;SDS011;4308;51.294;6.590;2022-10-31T05:30:28;17.50;;;12.00;;
8540;SDS011;4308;51.294;6.590;2022-10-31T05:32:56;19.73;;;11.50;;
8540;SDS011;4308;51.294;6.590;2022-10-31T05:35:28;20.73;;;12.57;;
8540;SDS011;4308;51.294;6.590;2022-10-31T05:37:56;18.20;;;11.80;;
8540;SDS011;4308;51.294;6.590;2022-10-31T05:40:24;21.53;;;11.17;;
8540;SDS011;4308;51.294;6.590;2022-10-31T05:42:53;20.10;;;11.20;;
8540;SDS011;4308;51.294;6.590;2022-10-31T05:45:21;19.57;;;11.43;;
8540;SDS011;4308;51.294;6.590;2022-10-31T05:47:52;20.97;;;11.40;;
8540;SDS011;4308;51.294;6.590;2022-10-31T05:50:21;18.03;;;11.50;;
8540;SDS011;4308;51.294;6.590;2022-10-31T05:52:55;21.73;;;11.90;;
8540;SDS011;4308;51.294;6.590;2022-10-31T05:55:23;18.73;;;11.10;;
8540;SDS011;4308;51.294;6.590;2022-10-31T05:57:52;19.60;;;10.70;;
8540;SDS011;4308;51.294;6.590;2022-10-31T06:00:19;17.90;;;11.00;;
8540;SDS011;4308;51.294;6.590;2022-10-31T06:02:48;20.57;;;11.30;;
8540;SDS011;4308;51.294;6.590;2022-10-31T06:05:15;21.03;;;12.37;;
8540;SDS011;4308;51.294;6.590;2022-10-31T06:07:43;18.13;;;11.53;;
8540;SDS011;4308;51.294;6.590;2022-10-31T06:10:10;17.40;;;10.73;;
8540;SDS011;4308;51.294;6.590;2022-10-31T06:12:38;19.70;;;10.50;;
8540;SDS011;4308;51.294;6.590;2022-10-31T06:15:06;17.50;;;11.10;;
8540;SDS011;4308;51.294;6.590;2022-10-31T06:17:34;16.20;;;10.80;;
8540;SDS011;4308;51.294;6.590;2022-10-31T06:20:02;20.97;;;11.40;;
8540;SDS011;4308;51.294;6.590;2022-10-31T06:22:29;18.17;;;10.60;;
8540;SDS011;4308;51.294;6.590;2022-10-31T06:24:57;21.43;;;12.67;;
8540;SDS011;4308;51.294;6.590;2022-10-31T06:27:25;21.73;;;11.53;;
8540;SDS011;4308;51.294;6.590;2022-10-31T06:29:52;23.33;;;10.63;;
8540;SDS011;4308;51.294;6.590;2022-10-31T06:32:20;20.83;;;10.80;;
8540;SDS011;4308;51.294;6.590;2022-10-31T06:34:48;18.73;;;11.30;;
8540;SDS011;4308;51.294;6.590;2022-10-31T06:37:15;16.73;;;10.57;;
8540;SDS011;4308;51.294;6.590;2022-10-31T06:39:43;19.53;;;11.10;;
8540;SDS011;4308;51.294;6.590;2022-10-31T06:42:10;18.43;;;10.97;;
8540;SDS011;4308;51.294;6.590;2022-10-31T06:44:38;20.43;;;12.10;;
8540;SDS011;4308;51.294;6.590;2022-10-31T06:47:05;18.70;;;11.20;;
8540;SDS011;4308;51.294;6.590;2022-10-31T06:49:33;19.97;;;10.70;;
8540;SDS011;4308;51.294;6.590;2022-10-31T06:52:00;20.97;;;11.23;;
8540;SDS011;4308;51.294;6.590;2022-10-31T06:54:28;18.53;;;9.90;;
8540;SDS011;4308;51.294;6.590;2022-10-31T06:56:56;18.03;;;10.27;;
8540;SDS011;4308;51.294;6.590;2022-10-31T06:59:23;18.93;;;11.23;;
8540;SDS011;4308;51.294;6.590;2022-10-31T07:01:51;18.13;;;10.63;;
8540;SDS011;4308;51.294;6.590;2022-10-31T07:04:19;23.13;;;11.83;;
8540;SDS011;4308;51.294;6.590;2022-10-31T07:06:46;22.17;;;11.07;;
8540;SDS011;4308;51.294;6.590;2022-10-31T07:09:17;18.73;;;10.50;;
8540;SDS011;4308;51.294;6.590;2022-10-31T07:11:45;18.10;;;9.87;;
8540;SDS011;4308;51.294;6.590;2022-10-31T07:14:12;24.00;;;10.30;;
8540;SDS011;4308;51.294;6.590;2022-10-31T07:16:40;35.97;;;22.70;;
8540;SDS011;4308;51.294;6.590;2022-10-31T07:19:07;18.50;;;10.80;;
8540;SDS011;4308;51.294;6.590;2022-10-31T07:21:35;22.40;;;11.93;;
8540;SDS011;4308;51.294;6.590;2022-10-31T07:24:02;20.07;;;12.40;;
8540;SDS011;4308;51.294;6.590;2022-10-31T07:26:30;19.97;;;11.53;;
8540;SDS011;4308;51.294;6.590;2022-10-31T07:28:58;23.67;;;12.53;;
8540;SDS011;4308;51.294;6.590;2022-10-31T07:31:25;15.87;;;11.63;;
8540;SDS011;4308;51.294;6.590;2022-10-31T07:33:53;16.53;;;11.13;;
8540;SDS011;4308;51.294;6.590;2022-10-31T07:36:20;18.90;;;11.67;;
8540;SDS011;4308;51.294;6.590;2022-10-31T07:38:48;17.70;;;11.83;;
8540;SDS011;4308;51.294;6.590;2022-10-31T07:41:15;24.73;;;12.90;;
8540;SDS011;4308;51.294;6.590;2022-10-31T07:43:43;22.90;;;13.13;;
8540;SDS011;4308;51.294;6.590;2022-10-31T07:46:10;24.23;;;13.13;;
8540;SDS011;4308;51.294;6.590;2022-10-31T07:48:38;23.70;;;12.73;;
8540;SDS011;4308;51.294;6.590;2022-10-31T07:51:05;17.30;;;11.23;;
8540;SDS011;4308;51.294;6.590;2022-10-31T07:53:33;18.87;;;12.00;;
8540;SDS011;4308;51.294;6.590;2022-10-31T07:56:01;24.03;;;12.77;;
8540;SDS011;4308;51.294;6.590;2022-10-31T07:58:28;19.87;;;11.87;;
8540;SDS011;4308;51.294;6.590;2022-10-31T08:00:57;20.33;;;11.37;;
8540;SDS011;4308;51.294;6.590;2022-10-31T08:03:25;23.50;;;12.13;;
8540;SDS011;4308;51.294;6.590;2022-10-31T08:05:52;21.73;;;12.37;;
8540;SDS011;4308;51.294;6.590;2022-10-31T08:08:20;23.37;;;12.10;;
8540;SDS011;4308;51.294;6.590;2022-10-31T08:10:47;24.77;;;13.10;;
8540;SDS011;4308;51.294;6.590;2022-10-31T08:13:15;19.57;;;12.50;;
8540;SDS011;4308;51.294;6.590;2022-10-31T08:15:42;25.30;;;12.00;;
8540;SDS011;4308;51.294;6.590;2022-10-31T08:18:13;30.17;;;12.30;;
8540;SDS011;4308;51.294;6.590;2022-10-31T08:20:41;23.37;;;12.23;;
8540;SDS011;4308;51.294;6.590;2022-10-31T08:23:09;30.03;;;12.53;;
8540;SDS011;4308;51.294;6.590;2022-10-31T08:25:37;21.23;;;11.07;;
8540;SDS011;4308;51.294;6.590;2022-10-31T08:28:05;28.10;;;11.57;;
8540;SDS011;4308;51.294;6.590;2022-10-31T08:30:34;23.83;;;11.53;;
8540;SDS011;4308;51.294;6.590;2022-10-31T08:33:03;24.90;;;12.30;;
8540;SDS011;4308;51.294;6.590;2022-10-31T08:35:32;22.33;;;12.07;;
8540;SDS011;4308;51.294;6.590;2022-10-31T08:38:00;24.70;;;12.80;;
8540;SDS011;4308;51.294;6.590;2022-10-31T08:40:29;20.53;;;11.90;;
8540;SDS011;4308;51.294;6.590;2022-10-31T08:43:00;21.73;;;12.67;;
8540;SDS011;4308;51.294;6.590;2022-10-31T08:45:28;31.83;;;13.43;;
8540;SDS011;4308;51.294;6.590;2022-10-31T08:47:56;22.43;;;12.13;;
8540;SDS011;4308;51.294;6.590;2022-10-31T08:50:25;24.37;;;12.30;;
8540;SDS011;4308;51.294;6.590;2022-10-31T08:52:53;21.73;;;12.60;;
8540;SDS011;4308;51.294;6.590;2022-10-31T08:55:35;24.43;;;12.07;;
8540;SDS011;4308;51.294;6.590;2022-10-31T08:58:04;24.03;;;12.43;;
8540;SDS011;4308;51.294;6.590;2022-10-31T09:00:32;20.57;;;12.00;;
8540;SDS011;4308;51.294;6.590;2022-10-31T09:03:04;25.53;;;11.43;;
8540;SDS011;4308;51.294;6.590;2022-10-31T09:05:32;26.63;;;12.77;;
8540;SDS011;4308;51.294;6.590;2022-10-31T09:08:01;28.07;;;11.40;;
8540;SDS011;4308;51.294;6.590;2022-10-31T09:10:30;24.97;;;12.60;;
8540;SDS011;4308;51.294;6.590;2022-10-31T09:12:58;24.33;;;12.87;;
8540;SDS011;4308;51.294;6.590;2022-10-31T09:15:26;24.20;;;12.57;;
8540;SDS011;4308;51.294;6.590;2022-10-31T09:17:54;22.87;;;11.73;;
8540;SDS011;4308;51.294;6.590;2022-10-31T09:20:22;19.30;;;10.73;;
8540;SDS011;4308;51.294;6.590;2022-10-31T09:22:56;19.37;;;10.13;;
8540;SDS011;4308;51.294;6.590;2022-10-31T09:25:24;17.70;;;10.63;;
8540;SDS011;4308;51.294;6.590;2022-10-31T09:27:55;19.47;;;11.03;;
8540;SDS011;4308;51.294;6.590;2022-10-31T09:30:23;19.43;;;9.80;;
8540;SDS011;4308;51.294;6.590;2022-10-31T09:32:55;16.10;;;9.40;;
8540;SDS011;4308;51.294;6.590;2022-10-31T09:35:22;22.63;;;10.07;;
8540;SDS011;4308;51.294;6.590;2022-10-31T09:38:01;21.33;;;10.37;;
8540;SDS011;4308;51.294;6.590;2022-10-31T09:40:34;22.20;;;10.17;;
8540;SDS011;4308;51.294;6.590;2022-10-31T09:45:35;19.80;;;9.27;;
8540;SDS011;4308;51.294;6.590;2022-10-31T09:48:09;17.53;;;9.20;;
8540;SDS011;4308;51.294;6.590;2022-10-31T09:50:50;15.27;;;9.10;;
8540;SDS011;4308;51.294;6.590;2022-10-31T09:56:01;14.50;;;8.70;;
8540;SDS011;4308;51.294;6.590;2022-10-31T09:58:32;17.47;;;9.27;;
8540;SDS011;4308;51.294;6.590;2022-10-31T10:01:04;15.17;;;8.40;;
8540;SDS011;4308;51.294;6.590;2022-10-31T10:03:34;16.23;;;9.33;;
8540;SDS011;4308;51.294;6.590;2022-10-31T10:06:19;15.60;;;8.63;;
8540;SDS011;4308;51.294;6.590;2022-10-31T10:08:48;18.43;;;9.07;;
8540;SDS011;4308;51.294;6.590;2022-10-31T10:22:15;12.90;;;8.27;;
8540;SDS011;4308;51.294;6.590;2022-10-31T10:27:27;20.00;;;9.50;;
8540;SDS011;4308;51.294;6.590;2022-10-31T10:30:51;16.50;;;9.17;;
8540;SDS011;4308;51.294;6.590;2022-10-31T10:33:33;18.00;;;9.80;;
8540;SDS011;4308;51.294;6.590;2022-10-31T10:36:06;19.80;;;10.27;;
8540;SDS011;4308;51.294;6.590;2022-10-31T10:41:05;15.23;;;9.83;;
8540;SDS011;4308;51.294;6.590;2022-10-31T10:43:34;21.07;;;10.47;;
8540;SDS011;4308;51.294;6.590;2022-10-31T10:54:36;21.00;;;10.27;;
8540;SDS011;4308;51.294;6.590;2022-10-31T10:59:36;19.97;;;11.00;;
8540;SDS011;4308;51.294;6.590;2022-10-31T11:02:08;18.40;;;10.77;;
8540;SDS011;4308;51.294;6.590;2022-10-31T11:04:42;19.53;;;10.40;;
8540;SDS011;4308;51.294;6.590;2022-10-31T11:07:10;19.07;;;10.60;;
8540;SDS011;4308;51.294;6.590;2022-10-31T11:09:38;16.57;;;9.43;;
8540;SDS011;4308;51.294;6.590;2022-10-31T11:12:07;16.27;;;10.07;;
8540;SDS011;4308;51.294;6.590;2022-10-31T11:14:36;25.07;;;10.87;;
8540;SDS011;4308;51.294;6.590;2022-10-31T11:17:11;19.87;;;10.10;;
8540;SDS011;4308;51.294;6.590;2022-10-31T11:19:45;22.80;;;10.27;;
8540;SDS011;4308;51.294;6.590;2022-10-31T11:22:14;16.10;;;8.27;;
8540;SDS011;4308;51.294;6.590;2022-10-31T11:24:43;17.30;;;9.50;;
8540;SDS011;4308;51.294;6.590;2022-10-31T11:27:16;18.40;;;8.90;;
8540;SDS011;4308;51.294;6.590;2022-10-31T11:29:44;15.40;;;9.03;;
8540;SDS011;4308;51.294;6.590;2022-10-31T11:32:16;14.93;;;8.60;;
8540;SDS011;4308;51.294;6.590;2022-10-31T11:34:48;19.77;;;8.27;;
8540;SDS011;4308;51.294;6.590;2022-10-31T11:37:19;15.73;;;7.67;;
8540;SDS011;4308;51.294;6.590;2022-10-31T11:39:52;10.80;;;7.37;;
8540;SDS011;4308;51.294;6.590;2022-10-31T11:42:20;12.10;;;6.53;;
8540;SDS011;4308;51.294;6.590;2022-10-31T11:44:49;15.63;;;6.70;;
8540;SDS011;4308;51.294;6.590;2022-10-31T11:47:17;13.97;;;7.27;;
8540;SDS011;4308;51.294;6.590;2022-10-31T11:49:47;12.77;;;6.83;;
8540;SDS011;4308;51.294;6.590;2022-10-31T11:52:22;11.40;;;7.33;;
8540;SDS011;4308;51.294;6.590;2022-10-31T11:54:58;18.63;;;7.03;;
8540;SDS011;4308;51.294;6.590;2022-10-31T11:59:58;16.37;;;6.73;;
8540;SDS011;4308;51.294;6.590;2022-10-31T12:02:26;15.20;;;7.60;;
8540;SDS011;4308;51.294;6.590;2022-10-31T12:04:59;17.60;;;7.33;;
8540;SDS011;4308;51.294;6.590;2022-10-31T12:07:29;21.67;;;7.27;;
8540;SDS011;4308;51.294;6.590;2022-10-31T12:09:57;12.47;;;6.87;;
8540;SDS011;4308;51.294;6.590;2022-10-31T12:15:04;17.37;;;7.50;;
8540;SDS011;4308;51.294;6.590;2022-10-31T12:25:55;13.47;;;6.43;;
8540;SDS011;4308;51.294;6.590;2022-10-31T12:36:12;12.83;;;5.60;;
8540;SDS011;4308;51.294;6.590;2022-10-31T12:41:38;20.50;;;6.27;;
8540;SDS011;4308;51.294;6.590;2022-10-31T12:44:13;13.80;;;6.00;;
8540;SDS011;4308;51.294;6.590;2022-10-31T12:49:49;13.13;;;5.47;;
8540;SDS011;4308;51.294;6.590;2022-10-31T12:57:30;10.53;;;5.73;;
8540;SDS011;4308;51.294;6.590;2022-10-31T13:02:37;10.73;;;5.10;;
8540;SDS011;4308;51.294;6.590;2022-10-31T13:07:45;12.17;;;5.30;;
8540;SDS011;4308;51.294;6.590;2022-10-31T13:10:21;9.50;;;5.30;;
8540;SDS011;4308;51.294;6.590;2022-10-31T13:12:51;11.07;;;4.90;;
8540;SDS011;4308;51.294;6.590;2022-10-31T13:15:23;12.70;;;5.60;;
8540;SDS011;4308;51.294;6.590;2022-10-31T13:17:56;10.83;;;3.70;;
8540;SDS011;4308;51.294;6.590;2022-10-31T13:20:41;10.73;;;4.77;;
8540;SDS011;4308;51.294;6.590;2022-10-31T13:23:12;13.67;;;4.60;;
8540;SDS011;4308;51.294;6.590;2022-10-31T13:26:06;5.80;;;3.53;;
8540;SDS011;4308;51.294;6.590;2022-10-31T13:31:16;8.23;;;3.97;;
8540;SDS011;4308;51.294;6.590;2022-10-31T13:33:45;11.13;;;4.70;;
8540;SDS011;4308;51.294;6.590;2022-10-31T13:38:57;8.53;;;4.20;;
8540;SDS011;4308;51.294;6.590;2022-10-31T13:41:42;16.60;;;5.03;;
8540;SDS011;4308;51.294;6.590;2022-10-31T13:44:24;14.37;;;4.80;;
8540;SDS011;4308;51.294;6.590;2022-10-31T13:46:55;10.30;;;4.50;;
8540;SDS011;4308;51.294;6.590;2022-10-31T13:54:43;10.17;;;4.30;;
8540;SDS011;4308;51.294;6.590;2022-10-31T13:59:58;7.67;;;3.43;;
8540;SDS011;4308;51.294;6.590;2022-10-31T14:02:30;8.70;;;4.40;;
8540;SDS011;4308;51.294;6.590;2022-10-31T14:05:19;14.43;;;4.50;;
8540;SDS011;4308;51.294;6.590;2022-10-31T14:07:49;10.40;;;4.43;;
8540;SDS011;4308;51.294;6.590;2022-10-31T14:10:33;10.37;;;3.97;;
8540;SDS011;4308;51.294;6.590;2022-10-31T14:13:13;9.87;;;4.37;;
8540;SDS011;4308;51.294;6.590;2022-10-31T14:15:43;10.27;;;3.90;;
8540;SDS011;4308;51.294;6.590;2022-10-31T14:18:28;6.70;;;3.60;;
8540;SDS011;4308;51.294;6.590;2022-10-31T14:20:57;8.07;;;4.33;;
8540;SDS011;4308;51.294;6.590;2022-10-31T14:28:35;12.40;;;4.03;;
8540;SDS011;4308;51.294;6.590;2022-10-31T14:31:21;13.40;;;4.70;;
8540;SDS011;4308;51.294;6.590;2022-10-31T14:33:50;10.27;;;4.20;;
8540;SDS011;4308;51.294;6.590;2022-10-31T14:36:18;7.13;;;3.60;;
8540;SDS011;4308;51.294;6.590;2022-10-31T14:38:54;10.90;;;4.33;;
8540;SDS011;4308;51.294;6.590;2022-10-31T14:41:47;12.83;;;5.00;;
8540;SDS011;4308;51.294;6.590;2022-10-31T14:47:16;7.67;;;3.87;;
8540;SDS011;4308;51.294;6.590;2022-10-31T14:52:17;9.53;;;3.53;;
8540;SDS011;4308;51.294;6.590;2022-10-31T14:54:46;10.27;;;3.70;;
8540;SDS011;4308;51.294;6.590;2022-10-31T14:59:51;8.80;;;4.13;;
8540;SDS011;4308;51.294;6.590;2022-10-31T15:03:11;10.00;;;3.97;;
8540;SDS011;4308;51.294;6.590;2022-10-31T15:05:17;12.40;;;3.67;;
8540;SDS011;4308;51.294;6.590;2022-10-31T15:07:48;11.67;;;3.97;;
8540;SDS011;4308;51.294;6.590;2022-10-31T15:10:21;12.03;;;3.70;;
8540;SDS011;4308;51.294;6.590;2022-10-31T15:12:49;8.13;;;3.70;;
8540;SDS011;4308;51.294;6.590;2022-10-31T15:17:54;9.53;;;3.57;;
8540;SDS011;4308;51.294;6.590;2022-10-31T15:20:23;8.50;;;3.90;;
8540;SDS011;4308;51.294;6.590;2022-10-31T15:22:51;11.67;;;3.70;;
8540;SDS011;4308;51.294;6.590;2022-10-31T15:25:20;10.07;;;3.73;;
8540;SDS011;4308;51.294;6.590;2022-10-31T15:27:48;12.77;;;4.50;;
8540;SDS011;4308;51.294;6.590;2022-10-31T15:30:20;9.30;;;4.10;;
8540;SDS011;4308;51.294;6.590;2022-10-31T15:32:49;9.90;;;3.37;;
8540;SDS011;4308;51.294;6.590;2022-10-31T15:35:28;10.03;;;4.60;;
8540;SDS011;4308;51.294;6.590;2022-10-31T15:37:56;12.30;;;3.53;;
8540;SDS011;4308;51.294;6.590;2022-10-31T15:40:26;10.00;;;3.93;;
8540;SDS011;4308;51.294;6.590;2022-10-31T15:42:55;11.67;;;3.97;;
8540;SDS011;4308;51.294;6.590;2022-10-31T15:45:24;12.30;;;4.33;;
8540;SDS011;4308;51.294;6.590;2022-10-31T15:47:56;13.73;;;4.73;;
8540;SDS011;4308;51.294;6.590;2022-10-31T15:50:30;10.80;;;4.07;;
8540;SDS011;4308;51.294;6.590;2022-10-31T15:52:59;16.10;;;4.00;;
8540;SDS011;4308;51.294;6.590;2022-10-31T15:55:31;10.40;;;3.97;;
8540;SDS011;4308;51.294;6.590;2022-10-31T15:58:01;12.77;;;4.00;;
8540;SDS011;4308;51.294;6.590;2022-10-31T16:00:35;10.07;;;3.60;;
8540;SDS011;4308;51.294;6.590;2022-10-31T16:05:54;11.20;;;4.07;;
8540;SDS011;4308;51.294;6.590;2022-10-31T16:13:40;10.57;;;3.47;;
8540;SDS011;4308;51.294;6.590;2022-10-31T16:16:12;8.13;;;3.37;;
8540;SDS011;4308;51.294;6.590;2022-10-31T16:19:01;15.43;;;4.03;;
8540;SDS011;4308;51.294;6.590;2022-10-31T16:21:33;15.67;;;4.70;;
8540;SDS011;4308;51.294;6.590;2022-10-31T16:24:03;12.93;;;4.00;;
8540;SDS011;4308;51.294;6.590;2022-10-31T16:26:32;11.17;;;4.47;;
8540;SDS011;4308;51.294;6.590;2022-10-31T16:29:00;12.37;;;4.87;;
8540;SDS011;4308;51.294;6.590;2022-10-31T16:31:38;13.80;;;4.27;;
8540;SDS011;4308;51.294;6.590;2022-10-31T16:34:17;11.23;;;4.30;;
8540;SDS011;4308;51.294;6.590;2022-10-31T16:36:52;8.97;;;3.87;;
8540;SDS011;4308;51.294;6.590;2022-10-31T16:39:20;11.10;;;4.20;;
8540;SDS011;4308;51.294;6.590;2022-10-31T16:41:48;15.93;;;4.90;;
8540;SDS011;4308;51.294;6.590;2022-10-31T16:44:18;10.53;;;4.30;;
8540;SDS011;4308;51.294;6.590;2022-10-31T16:46:46;17.40;;;4.83;;
8540;SDS011;4308;51.294;6.590;2022-10-31T16:49:14;9.10;;;4.23;;
8540;SDS011;4308;51.294;6.590;2022-10-31T16:51:42;11.63;;;3.93;;
8540;SDS011;4308;51.294;6.590;2022-10-31T16:54:09;12.57;;;4.33;;
8540;SDS011;4308;51.294;6.590;2022-10-31T16:56:37;13.00;;;3.87;;
8540;SDS011;4308;51.294;6.590;2022-10-31T16:59:05;9.97;;;3.60;;
8540;SDS011;4308;51.294;6.590;2022-10-31T17:01:41;15.23;;;3.97;;
8540;SDS011;4308;51.294;6.590;2022-10-31T17:04:13;12.83;;;4.03;;
8540;SDS011;4308;51.294;6.590;2022-10-31T17:06:41;13.53;;;4.13;;
8540;SDS011;4308;51.294;6.590;2022-10-31T17:09:09;10.17;;;3.60;;
8540;SDS011;4308;51.294;6.590;2022-10-31T17:11:38;14.80;;;4.30;;
8540;SDS011;4308;51.294;6.590;2022-10-31T17:14:16;11.37;;;3.60;;
8540;SDS011;4308;51.294;6.590;2022-10-31T17:16:45;12.23;;;3.93;;
8540;SDS011;4308;51.294;6.590;2022-10-31T17:19:12;10.87;;;3.30;;
8540;SDS011;4308;51.294;6.590;2022-10-31T17:21:40;11.33;;;3.70;;
8540;SDS011;4308;51.294;6.590;2022-10-31T17:24:12;10.57;;;4.13;;
8540;SDS011;4308;51.294;6.590;2022-10-31T17:26:40;8.33;;;4.23;;
8540;SDS011;4308;51.294;6.590;2022-10-31T17:29:08;12.50;;;4.30;;
8540;SDS011;4308;51.294;6.590;2022-10-31T17:31:36;12.33;;;4.00;;
8540;SDS011;4308;51.294;6.590;2022-10-31T17:34:04;11.87;;;3.50;;
8540;SDS011;4308;51.294;6.590;2022-10-31T17:36:32;7.83;;;4.07;;
8540;SDS011;4308;51.294;6.590;2022-10-31T17:39:01;11.90;;;4.20;;